Terminal Aerodrome Forecast
Issued by NWS

Home | Current Version | Previous Version | Text Only | Print | Product List | Glossary On
Versions: 1 2 3 4 5 6 7 8 9 10 11 12 13 14 15 16 17 18 19 20 21 22 23 24 25 26 27 28 29
812
FTUS43 KSGF 232320
TAFJLN
TAF
KJLN 232320Z 2400/2424 VRB04KT P6SM SKC
     FM240300 12006KT P6SM SKC
     FM241200 16012KT P6SM FEW250 WS020/19040KT
     FM241400 17013G21KT P6SM SCT200
     FM241700 19020G30KT P6SM FEW200=

USA.gov is the U.S. government's official web portal to all federal, state and local government web resources and services.